createdAt,value
2022-11-05T00:01:28.366Z,100492.50
2022-11-05T00:04:13.180Z,100491.63
2022-11-05T00:06:55.412Z,100490.88
2022-11-05T00:09:33.971Z,100490.19
2022-11-05T00:12:18.980Z,100487.78
2022-11-05T00:15:01.062Z,100489.75
2022-11-05T00:17:30.691Z,100496.78
2022-11-05T00:20:02.958Z,100507.53
2022-11-05T00:22:44.993Z,100506.81
2022-11-05T00:25:17.603Z,100512.22
2022-11-05T00:27:48.220Z,100508.81
2022-11-05T00:30:20.861Z,100508.94
2022-11-05T00:32:51.834Z,100511.63
2022-11-05T00:35:24.850Z,100515.25
2022-11-05T00:37:56.011Z,100512.72
2022-11-05T00:40:25.628Z,100507.63
2022-11-05T00:43:07.801Z,100515.66
2022-11-05T00:45:37.913Z,100520.97
2022-11-05T00:48:20.828Z,100531.69
2022-11-05T00:50:53.004Z,100537.88
2022-11-05T00:53:22.702Z,100527.38
2022-11-05T00:55:52.305Z,100536.31
2022-11-05T00:58:23.875Z,100533.66
2022-11-05T01:00:54.945Z,100532.00
2022-11-05T01:03:26.687Z,100538.13
2022-11-05T01:06:00.653Z,100543.59
2022-11-05T01:08:30.969Z,100546.56
2022-11-05T01:11:01.746Z,100544.91
2022-11-05T01:13:32.928Z,100543.25
2022-11-05T01:16:08.562Z,100554.69
2022-11-05T01:18:39.506Z,100553.16
2022-11-05T01:21:18.325Z,100556.16
2022-11-05T01:23:48.021Z,100565.09
2022-11-05T01:26:17.649Z,100564.34
2022-11-05T01:28:47.459Z,100566.97
2022-11-05T01:31:17.030Z,100576.91
2022-11-05T01:33:46.642Z,100575.78
2022-11-05T01:36:19.040Z,100566.16
2022-11-05T01:38:48.716Z,100568.72
2022-11-05T01:41:18.248Z,100567.56
2022-11-05T01:43:50.131Z,100561.41
2022-11-05T01:46:21.237Z,100564.78
2022-11-05T01:48:54.387Z,100575.16
2022-11-05T01:51:30.298Z,100578.75
2022-11-05T01:54:02.733Z,100588.47
2022-11-05T01:56:33.968Z,100577.97
2022-11-05T01:59:06.523Z,100586.66
2022-11-05T02:01:37.167Z,100575.34
2022-11-05T02:04:09.115Z,100578.78
2022-11-05T02:06:46.274Z,100583.22
2022-11-05T02:09:18.731Z,100582.53
2022-11-05T02:11:49.082Z,100587.84
2022-11-05T02:14:18.785Z,100594.78
2022-11-05T02:16:51.067Z,100599.22
2022-11-05T02:19:53.508Z,100602.81
2022-11-05T02:22:45.782Z,100603.41
2022-11-05T02:25:38.557Z,100605.38
2022-11-05T02:28:32.627Z,100607.19
2022-11-05T02:31:06.494Z,100610.72
2022-11-05T02:33:40.615Z,100616.81
2022-11-05T02:36:21.942Z,100616.03
2022-11-05T02:38:55.972Z,100618.19
2022-11-05T02:41:27.799Z,100618.09
2022-11-05T02:44:10.108Z,100620.66
2022-11-05T02:46:47.645Z,100618.91
2022-11-05T02:49:27.596Z,100616.31
2022-11-05T02:52:00.311Z,100618.91
2022-11-05T02:54:34.346Z,100610.06
2022-11-05T02:57:05.275Z,100617.78
2022-11-05T02:59:34.879Z,100610.78
2022-11-05T03:02:08.345Z,100611.69
2022-11-05T03:04:38.243Z,100612.69
2022-11-05T03:07:19.879Z,100609.31
2022-11-05T03:10:12.709Z,100613.75
2022-11-05T03:12:47.885Z,100612.03
2022-11-05T03:15:22.269Z,100618.19
2022-11-05T03:18:03.566Z,100612.19
2022-11-05T03:20:36.576Z,100601.00
2022-11-05T03:23:13.439Z,100607.16
2022-11-05T03:25:48.264Z,100607.25
2022-11-05T03:28:24.451Z,100607.25
2022-11-05T03:30:55.235Z,100615.25
2022-11-05T03:33:30.067Z,100618.88
2022-11-05T03:36:01.623Z,100622.28
2022-11-05T03:38:33.991Z,100618.88
2022-11-05T03:41:06.568Z,100619.63
2022-11-05T03:43:38.327Z,100626.50
2022-11-05T03:46:10.984Z,100629.09
2022-11-05T03:48:48.070Z,100630.78
2022-11-05T03:51:21.597Z,100635.28
2022-11-05T03:53:53.532Z,100630.81
2022-11-05T03:56:26.829Z,100638.72
2022-11-05T03:58:59.202Z,100648.28
2022-11-05T04:01:30.070Z,100644.19
2022-11-05T04:04:02.486Z,100644.16
2022-11-05T04:06:44.561Z,100653.78
2022-11-05T04:09:26.597Z,100656.34
2022-11-05T04:12:23.479Z,100656.44
2022-11-05T04:14:53.101Z,100656.34
2022-11-05T04:17:20.361Z,100656.41
2022-11-05T04:20:04.994Z,100663.41
2022-11-05T04:22:49.191Z,100662.59
2022-11-05T04:25:20.052Z,100654.91
2022-11-05T04:27:50.075Z,100651.47
2022-11-05T04:30:18.407Z,100660.25
2022-11-05T04:33:02.641Z,100662.94
2022-11-05T04:35:36.464Z,100664.81
2022-11-05T04:38:06.726Z,100666.72
2022-11-05T04:40:36.890Z,100665.66
2022-11-05T04:43:13.640Z,100662.13
2022-11-05T04:45:44.930Z,100667.91
2022-11-05T04:48:14.586Z,100674.88
2022-11-05T04:50:46.693Z,100675.00
2022-11-05T04:53:16.231Z,100671.56
2022-11-05T04:55:45.874Z,100675.22
2022-11-05T04:58:15.425Z,100666.66
2022-11-05T05:00:45.490Z,100668.28
2022-11-05T05:03:15.059Z,100683.00
2022-11-05T05:05:47.277Z,100670.94
2022-11-05T05:08:16.795Z,100670.75
2022-11-05T05:10:46.349Z,100677.00
2022-11-05T05:13:15.889Z,100675.19
2022-11-05T05:15:45.479Z,100681.31
2022-11-05T05:18:15.058Z,100680.56
2022-11-05T05:20:59.671Z,100684.00
2022-11-05T05:23:29.249Z,100685.91
2022-11-05T05:26:01.340Z,100683.44
2022-11-05T05:28:30.978Z,100688.63
2022-11-05T05:31:01.963Z,100682.50
2022-11-05T05:33:31.562Z,100685.94
2022-11-05T05:36:09.978Z,100689.44
2022-11-05T05:38:40.986Z,100692.81
2022-11-05T05:41:10.507Z,100695.59
2022-11-05T05:43:40.041Z,100700.00
2022-11-05T05:46:11.217Z,100693.91
2022-11-05T05:48:40.750Z,100695.66
2022-11-05T05:51:14.086Z,100691.31
2022-11-05T05:53:43.609Z,100693.84
2022-11-05T05:56:15.067Z,100698.97
2022-11-05T05:58:44.870Z,100701.69
2022-11-05T06:01:19.342Z,100700.00
2022-11-05T06:03:49.940Z,100712.41
2022-11-05T06:06:22.712Z,100712.31
2022-11-05T06:08:52.245Z,100714.00
2022-11-05T06:11:21.787Z,100727.13
2022-11-05T06:13:51.577Z,100727.09
2022-11-05T06:16:21.872Z,100725.38
2022-11-05T06:18:51.571Z,100730.53
2022-11-05T06:21:23.729Z,100737.50
2022-11-05T06:23:53.302Z,100740.00
2022-11-05T06:26:23.077Z,100742.75
2022-11-05T06:28:52.722Z,100737.56
2022-11-05T06:31:22.286Z,100742.72
2022-11-05T06:33:51.835Z,100747.75
2022-11-05T06:36:24.638Z,100749.44
2022-11-05T06:38:54.210Z,100750.34
2022-11-05T06:41:23.850Z,100753.03
2022-11-05T06:43:53.381Z,100758.41
2022-11-05T06:46:22.945Z,100754.16
2022-11-05T06:48:52.483Z,100760.25
2022-11-05T06:51:24.746Z,100769.06
2022-11-05T06:53:54.310Z,100762.06
2022-11-05T06:56:23.894Z,100760.34
2022-11-05T06:58:53.444Z,100769.13
2022-11-05T07:01:23.351Z,100770.94
2022-11-05T07:03:53.339Z,100777.88
2022-11-05T07:06:25.476Z,100781.41
2022-11-05T07:08:55.142Z,100781.41
2022-11-05T07:11:24.673Z,100783.06
2022-11-05T07:13:54.373Z,100785.81
2022-11-05T07:16:23.967Z,100792.84
2022-11-05T07:18:55.888Z,100780.56
2022-11-05T07:21:28.010Z,100790.97
2022-11-05T07:23:57.582Z,100791.13
2022-11-05T07:26:31.827Z,100799.88
2022-11-05T07:29:04.006Z,100801.53
2022-11-05T07:31:33.557Z,100796.91
2022-11-05T07:34:04.039Z,100799.59
2022-11-05T07:36:39.413Z,100804.84
2022-11-05T07:39:09.158Z,100804.75
2022-11-05T07:41:38.746Z,100817.66
2022-11-05T07:44:08.559Z,100816.63
2022-11-05T07:46:38.077Z,100814.91
2022-11-05T07:49:07.861Z,100809.66
2022-11-05T07:51:40.081Z,100814.00
2022-11-05T07:54:09.695Z,100818.44
2022-11-05T07:56:39.443Z,100824.56
2022-11-05T07:59:09.229Z,100821.94
2022-11-05T08:01:39.304Z,100820.19
2022-11-05T08:04:09.046Z,100822.72
2022-11-05T08:06:41.186Z,100817.31
2022-11-05T08:09:10.790Z,100816.53
2022-11-05T08:11:40.468Z,100821.72
2022-11-05T08:14:10.060Z,100823.47
2022-11-05T08:16:39.708Z,100821.66
2022-11-05T08:19:09.280Z,100822.56
2022-11-05T08:21:41.542Z,100831.25
2022-11-05T08:24:11.990Z,100829.47
2022-11-05T08:26:41.543Z,100834.34
2022-11-05T08:29:11.197Z,100835.94
2022-11-05T08:31:40.853Z,100823.44
2022-11-05T08:34:10.546Z,100824.78
2022-11-05T08:36:46.445Z,100829.28
2022-11-05T08:39:18.608Z,100824.66
2022-11-05T08:41:48.455Z,100830.72
2022-11-05T08:44:17.997Z,100825.25
2022-11-05T08:46:47.568Z,100828.53
2022-11-05T08:49:17.154Z,100832.78
2022-11-05T10:11:04.664Z,100859.50
2022-11-05T10:13:39.273Z,100865.47
2022-11-05T10:16:20.840Z,100859.41
2022-11-05T10:18:53.528Z,100858.06
2022-11-05T10:21:44.116Z,100852.56
2022-11-05T10:24:16.860Z,100851.91
2022-11-05T10:26:50.421Z,100849.59
2022-11-05T10:29:25.631Z,100853.94
2022-11-05T10:31:56.334Z,100850.78
2022-11-05T10:34:28.136Z,100858.22
2022-11-05T10:36:57.855Z,100849.09
2022-11-05T10:39:28.254Z,100854.09
2022-11-05T10:42:25.906Z,100858.28
2022-11-05T10:45:01.154Z,100861.38
2022-11-05T10:47:41.513Z,100870.44
2022-11-05T10:50:14.039Z,100872.28
2022-11-05T10:52:49.048Z,100873.00
2022-11-05T10:55:24.096Z,100876.19
2022-11-05T10:57:57.154Z,100871.66
2022-11-05T11:00:29.268Z,100871.56
2022-11-05T11:03:01.592Z,100873.34
2022-11-05T11:05:33.010Z,100870.78
2022-11-05T11:08:05.420Z,100870.91
2022-11-05T11:10:40.215Z,100879.78
2022-11-05T11:13:20.855Z,100873.44
2022-11-05T11:15:51.178Z,100868.94
2022-11-05T11:18:37.418Z,100863.44
2022-11-05T11:21:20.081Z,100870.56
2022-11-05T11:23:57.123Z,100867.06
2022-11-05T11:26:27.470Z,100864.00
2022-11-05T11:29:02.194Z,100859.41
2022-11-05T11:31:33.716Z,100861.06
2022-11-05T11:34:05.650Z,100865.84
2022-11-05T11:36:38.069Z,100861.31
2022-11-05T11:39:09.176Z,100870.38
2022-11-05T11:41:41.918Z,100863.88
2022-11-05T11:44:20.346Z,100860.28
2022-11-05T11:46:52.560Z,100871.16
2022-11-05T11:49:35.958Z,100865.00
2022-11-05T11:52:08.464Z,100869.75
2022-11-05T11:54:38.107Z,100863.88
2022-11-05T11:57:23.349Z,100873.91
2022-11-05T12:00:08.406Z,100866.91
2022-11-05T12:03:09.264Z,100864.53
2022-11-05T12:05:48.677Z,100860.84
2022-11-05T12:08:44.352Z,100864.25
2022-11-05T12:11:20.671Z,100852.75
2022-11-05T12:14:04.212Z,100859.75
2022-11-05T12:16:52.479Z,100862.63
2022-11-05T12:19:34.516Z,100864.56
2022-11-05T12:22:08.682Z,100861.69
2022-11-05T12:24:54.910Z,100878.47
2022-11-05T12:27:36.595Z,100863.31
2022-11-05T12:30:08.881Z,100857.97
2022-11-05T12:32:52.316Z,100856.50
2022-11-05T12:35:47.417Z,100853.06
2022-11-05T12:38:29.882Z,100853.78
2022-11-05T12:41:10.365Z,100856.41
2022-11-05T12:43:48.276Z,100860.38
2022-11-05T12:46:28.559Z,100851.84
2022-11-05T12:49:39.699Z,100850.06
2022-11-05T12:52:25.319Z,100848.47
2022-11-05T12:55:03.247Z,100842.91
2022-11-05T12:57:35.587Z,100851.66
2022-11-05T13:00:10.636Z,100843.97
2022-11-05T13:02:43.945Z,100837.84
2022-11-05T13:05:17.889Z,100840.50
2022-11-05T13:07:55.106Z,100832.63
2022-11-05T13:10:30.072Z,100839.41
2022-11-05T13:13:05.594Z,100820.78
2022-11-05T13:15:37.940Z,100821.31
2022-11-05T13:18:09.604Z,100823.88
2022-11-05T13:20:42.560Z,100825.59
2022-11-05T13:23:24.100Z,100822.84
2022-11-05T13:25:56.435Z,100828.22
2022-11-05T13:28:35.409Z,100833.41
2022-11-05T13:31:06.955Z,100832.41
2022-11-05T13:33:38.621Z,100828.13
2022-11-05T13:36:23.937Z,100834.28
2022-11-05T13:39:09.203Z,100821.31
2022-11-05T13:42:03.939Z,100812.72
2022-11-05T13:45:00.974Z,100808.56
2022-11-05T13:47:41.334Z,100803.09
2022-11-05T13:50:50.024Z,100808.31
2022-11-05T13:53:41.134Z,100801.16
2022-11-05T13:56:24.432Z,100796.97
2022-11-05T13:59:15.138Z,100796.28
2022-11-05T14:01:48.236Z,100809.31
2022-11-05T14:04:26.148Z,100797.00
2022-11-05T14:06:55.902Z,100804.38
2022-11-05T14:09:28.495Z,100803.75
2022-11-05T14:12:01.808Z,100790.53
2022-11-05T14:14:33.413Z,100793.50
2022-11-05T14:17:18.345Z,100789.28
2022-11-05T14:20:08.925Z,100788.34
2022-11-05T14:22:41.332Z,100796.16
2022-11-05T14:25:41.148Z,100800.66
2022-11-05T14:28:43.304Z,100805.00
2022-11-05T14:32:07.353Z,100799.44
2022-11-05T14:34:26.836Z,100780.00
2022-11-05T14:37:20.591Z,100780.06
2022-11-05T14:39:50.284Z,100773.50
2022-11-05T14:42:23.690Z,100774.25
2022-11-05T14:45:21.886Z,100768.38
2022-11-05T14:47:57.055Z,100769.34
2022-11-05T14:50:33.469Z,100766.06
2022-11-05T14:53:13.186Z,100765.13
2022-11-05T14:55:44.731Z,100764.34
2022-11-05T14:58:38.870Z,100763.53
2022-11-05T15:01:12.328Z,100778.97
2022-11-05T15:04:04.823Z,100779.75
2022-11-05T15:06:36.277Z,100779.09
2022-11-05T15:09:26.113Z,100773.06
2022-11-05T15:12:04.216Z,100780.66
2022-11-05T15:14:36.659Z,100774.53
2022-11-05T15:17:17.600Z,100780.97
2022-11-05T15:19:47.919Z,100780.00
2022-11-05T15:22:33.459Z,100779.13
2022-11-05T15:25:03.592Z,100768.41
2022-11-05T15:27:50.373Z,100770.97
2022-11-05T15:30:22.744Z,100773.06
2022-11-05T15:32:55.311Z,100771.91
2022-11-05T15:35:27.643Z,100763.19
2022-11-05T15:38:02.577Z,100769.56
2022-11-05T15:40:33.969Z,100777.72
2022-11-05T15:43:27.563Z,100774.25
2022-11-05T15:46:19.730Z,100772.47
2022-11-05T15:48:54.350Z,100772.53
2022-11-05T15:51:26.256Z,100774.38
2022-11-05T15:54:24.357Z,100779.81
2022-11-05T15:56:53.085Z,100781.28
2022-11-05T15:59:24.078Z,100771.50
2022-11-05T16:01:56.472Z,100771.44
2022-11-05T16:04:31.325Z,100775.44
2022-11-05T16:07:02.685Z,100763.22
2022-11-05T16:09:33.843Z,100770.25
2022-11-05T16:12:24.337Z,100774.78
2022-11-05T16:15:01.518Z,100778.41
2022-11-05T16:17:33.948Z,100774.88
2022-11-05T16:20:20.175Z,100777.50
2022-11-05T16:22:51.485Z,100774.88
2022-11-05T16:25:33.041Z,100777.72
2022-11-05T16:28:03.369Z,100775.22
2022-11-05T16:30:32.915Z,100765.63
2022-11-05T16:33:07.706Z,100764.84
2022-11-05T16:35:42.400Z,100772.81
2022-11-05T16:38:14.902Z,100776.94
2022-11-05T16:40:44.759Z,100776.06
2022-11-05T16:43:20.903Z,100771.09
2022-11-05T16:45:50.493Z,100783.41
2022-11-05T16:48:20.066Z,100778.44
2022-11-05T16:50:52.274Z,100783.28
2022-11-05T16:53:21.994Z,100774.53
2022-11-05T16:55:51.763Z,100777.72
2022-11-05T16:58:23.390Z,100780.72
2022-11-05T17:00:54.593Z,100783.41
2022-11-05T17:03:25.733Z,100780.59
2022-11-05T17:05:57.878Z,100777.94
2022-11-05T17:08:27.467Z,100781.50
2022-11-05T17:10:57.071Z,100788.06
2022-11-05T17:13:26.691Z,100780.81
2022-11-05T17:15:56.277Z,100773.81
2022-11-05T17:18:26.228Z,100767.75
2022-11-05T17:20:59.422Z,100775.53
2022-11-05T17:23:32.699Z,100777.25
2022-11-05T17:26:03.766Z,100767.75
2022-11-05T17:28:33.919Z,100771.25
2022-11-05T17:31:04.350Z,100774.53
2022-11-05T17:33:34.129Z,100773.88
2022-11-05T17:36:08.513Z,100779.28
2022-11-05T17:38:38.497Z,100768.84
2022-11-05T17:41:13.489Z,100775.84
2022-11-05T17:43:43.079Z,100767.84
2022-11-05T17:46:16.109Z,100778.47
2022-11-05T17:48:46.060Z,100776.75
2022-11-05T17:51:19.594Z,100765.34
2022-11-05T17:53:50.068Z,100771.38
2022-11-05T17:56:33.571Z,100774.94
2022-11-05T17:59:04.744Z,100778.53
2022-11-05T18:01:41.368Z,100775.91
2022-11-05T18:04:11.174Z,100780.25
2022-11-05T18:06:43.725Z,100784.50
2022-11-05T18:09:16.084Z,100783.72
2022-11-05T18:11:46.016Z,100795.50
2022-11-05T18:14:19.952Z,100789.94
2022-11-05T18:16:55.174Z,100793.63
2022-11-05T18:19:25.008Z,100798.03
2022-11-05T18:21:57.823Z,100805.22
2022-11-05T18:24:27.626Z,100806.72
2022-11-05T18:26:57.180Z,100805.16
2022-11-05T18:29:26.771Z,100794.56
2022-11-05T18:31:57.055Z,100792.69
2022-11-05T18:34:26.590Z,100792.00
2022-11-05T18:36:58.759Z,100794.75
2022-11-05T18:39:28.400Z,100804.31
2022-11-05T18:41:58.045Z,100792.19
2022-11-05T18:44:27.954Z,100791.22
2022-11-05T18:46:58.895Z,100789.56
2022-11-05T18:49:29.059Z,100780.81
2022-11-05T18:52:01.589Z,100782.66
2022-11-05T18:54:31.483Z,100779.97
2022-11-05T18:57:01.593Z,100778.44
2022-11-05T18:59:39.863Z,100772.25
2022-11-05T19:02:10.699Z,100784.56
2022-11-05T19:04:46.850Z,100781.88
2022-11-05T19:07:23.971Z,100788.69
2022-11-05T19:09:53.883Z,100779.94
2022-11-05T19:12:23.497Z,100773.84
2022-11-05T19:14:56.697Z,100775.53
2022-11-05T19:17:28.977Z,100785.22
2022-11-05T19:19:58.547Z,100786.22
2022-11-05T19:22:31.064Z,100793.19
2022-11-05T19:25:00.792Z,100792.28
2022-11-05T19:27:30.374Z,100788.13
2022-11-05T19:29:59.990Z,100789.72
2022-11-05T19:32:29.687Z,100785.38
2022-11-05T19:34:59.267Z,100785.66
2022-11-05T19:37:31.418Z,100785.50
2022-11-05T19:40:01.012Z,100788.16
2022-11-05T19:42:30.549Z,100779.47
2022-11-05T19:45:16.731Z,100778.59
2022-11-05T19:47:49.734Z,100784.84
2022-11-05T19:50:19.499Z,100786.63
2022-11-05T19:52:51.664Z,100782.28
2022-11-05T19:55:21.548Z,100780.53
2022-11-05T19:57:51.179Z,100774.88
2022-11-05T20:00:21.197Z,100783.16
2022-11-05T20:02:50.838Z,100780.66
2022-11-05T20:05:20.854Z,100778.22
2022-11-05T20:07:53.405Z,100783.56
2022-11-05T20:10:23.433Z,100778.31
2022-11-05T20:12:53.056Z,100775.00
2022-11-05T20:15:22.957Z,100781.06
2022-11-05T20:17:53.542Z,100784.66
2022-11-05T20:20:23.800Z,100798.00
2022-11-05T20:22:57.590Z,100806.63
2022-11-05T20:25:27.334Z,100799.84
2022-11-05T20:27:56.985Z,100795.50
2022-11-05T20:30:26.620Z,100790.50
2022-11-05T20:32:57.013Z,100783.31
2022-11-05T20:35:27.573Z,100784.25
2022-11-05T20:37:59.862Z,100781.59
2022-11-05T20:40:29.519Z,100785.16
2022-11-05T20:42:59.299Z,100777.25
2022-11-05T20:45:28.959Z,100773.88
2022-11-05T20:47:58.823Z,100781.56
2022-11-05T20:50:28.546Z,100778.06
2022-11-05T20:53:01.433Z,100779.19
2022-11-05T20:55:31.028Z,100778.97
2022-11-05T20:58:00.827Z,100777.34
2022-11-05T21:00:30.452Z,100786.88
2022-11-05T21:03:00.384Z,100791.63
2022-11-05T21:05:35.299Z,100797.69
2022-11-05T21:08:08.265Z,100797.75
2022-11-05T21:10:37.908Z,100794.91
2022-11-05T21:13:07.562Z,100798.47
2022-11-05T21:15:37.243Z,100800.31
2022-11-05T21:18:07.334Z,100808.09
2022-11-05T21:20:37.007Z,100805.38
2022-11-05T21:23:09.276Z,100801.03
2022-11-05T21:25:40.559Z,100805.56
2022-11-05T21:28:11.239Z,100806.28
2022-11-05T21:30:45.009Z,100805.38
2022-11-05T21:33:15.328Z,100795.69
2022-11-05T21:35:46.568Z,100793.28
2022-11-05T21:38:19.854Z,100794.13
2022-11-05T21:40:49.448Z,100770.38
2022-11-05T21:43:19.057Z,100760.94
2022-11-05T21:45:48.602Z,100760.88
2022-11-05T21:48:18.324Z,100762.66
2022-11-05T21:51:00.367Z,100754.75
2022-11-05T21:53:45.002Z,100754.84
2022-11-05T21:56:32.971Z,100749.44
2022-11-05T21:59:14.985Z,100752.88
2022-11-05T22:01:44.811Z,100753.91
2022-11-05T22:04:14.639Z,100752.22
2022-11-05T22:06:44.179Z,100752.41
2022-11-05T22:09:18.237Z,100757.41
2022-11-05T22:11:47.829Z,100744.38
2022-11-05T22:14:17.490Z,100755.81
2022-11-05T22:16:47.025Z,100759.31
2022-11-05T22:19:17.031Z,100755.94
2022-11-05T22:21:46.676Z,100753.31
2022-11-05T22:24:18.999Z,100739.25
2022-11-05T22:26:48.778Z,100741.97
2022-11-05T22:29:18.422Z,100731.44
2022-11-05T22:31:48.158Z,100730.44
2022-11-05T22:34:18.024Z,100721.69
2022-11-05T22:36:47.680Z,100724.38
2022-11-05T22:39:20.408Z,100714.78
2022-11-05T22:41:50.426Z,100713.00
2022-11-05T22:44:20.043Z,100724.41
2022-11-05T22:46:49.634Z,100714.06
2022-11-05T22:49:19.217Z,100718.66
2022-11-05T22:51:48.905Z,100710.66
2022-11-05T22:54:21.132Z,100711.69
2022-11-05T22:56:52.554Z,100714.47
2022-11-05T22:59:22.253Z,100710.97
2022-11-05T23:01:52.177Z,100704.06
2022-11-05T23:04:21.873Z,100705.13
2022-11-05T23:07:03.874Z,100697.16
2022-11-05T23:09:50.148Z,100700.72
2022-11-05T23:12:26.119Z,100702.50
2022-11-05T23:14:56.135Z,100699.88
2022-11-05T23:17:38.281Z,100688.44
2022-11-05T23:20:25.028Z,100682.25
2022-11-05T23:23:07.138Z,100677.69
2022-11-05T23:25:39.526Z,100689.88
2022-11-05T23:28:11.227Z,100680.22
2022-11-05T23:31:05.815Z,100678.41
2022-11-05T23:33:34.220Z,100689.00
2022-11-05T23:36:16.307Z,100682.75
2022-11-05T23:38:45.857Z,100681.09
2022-11-05T23:41:30.501Z,100683.72
2022-11-05T23:44:12.504Z,100689.66
2022-11-05T23:46:54.519Z,100687.25
2022-11-05T23:49:24.382Z,100677.91
2022-11-05T23:51:53.978Z,100676.84
2022-11-05T23:54:24.571Z,100663.75
2022-11-05T23:56:56.775Z,100663.91
2022-11-05T23:59:26.535Z,100659.69
